Race Results for
Sea Otter Classic-USCF
Monterey, CA
(Event Information)
This is a non-competitive event
Road Race on 04/16/2004

Note: Ranking points are NOT upgrade points. An explanation of ranking points can be found here.


Men - Junior - JR - 15-16

 Place NameCity, StateTime USAC #BibTeam
1COLLIN SAMAAN   02:20:06.3  2439 
2Jorge Yepez   Lakewood , CA02:20:06.8 186598  2432 DARE RACING TEAM
3CHRIS BARTON   02:20:19.5  2440 BICYCLES OF OUAI
4Blake Anton   Arroyo Grande, CA02:20:28.7 192686  2433 DAVIS BIKE CLUB RACE TEAM
5Clifford Redig   Tucson, AZ02:21:13.7 144128  2425 
6Nick Keller   Tempe, AZ02:22:34.2 187853  2409 DOMENICS CYCLING/STRADA RACING CLUB
7Adolfo Garcia   Anahiem, CA02:22:41.6 197207  2417 MAJOR MOTION
9Benny Volotzky   Chatsworth, CA02:28:33.2 200734  2435 ENCENOVELO
10Jens Brabbit   La Crosse02:29:18.6 184406  2423 MNJRC
11Joe Iannarelli   Vacaville, CA02:31:24.3 195783  2434 TEAM SWIFT
12GAELAN MUNDORFF   02:31:27.2  2424 
13Nico Cianfrocca   Ada, MI02:31:43.6 178906  2416 MAJOR MOTION
14Spencer Spagnola   La Mesa, CA02:32:31.2 193044  2421 
15Travis Enmon   Minneapolis, MN02:32:31.5 192487  2402 
16Jacob Morris   Newbury Park, CA02:32:32.2 176178  2427 AMGEN CYCLING
17Alexander Wick   Davis, CA02:32:52.2 196337  2430 DAVIS BIKE CLUB
18JULIAN MARTINEZ   02:32:54.2  2426 TIENI DURO
19Charles Hamilton   Concord, CA02:32:59.6 196264  2438 TIENI DURO
20Alfredo Cruz   San Ysidro, CA02:33:07.8 167682  2420 MAJOR MOTION
21GRAYSEN OLDHAM   02:40:17.1  2437 TEAM BAKO
22Joseph Little   Reno, NV02:45:55.6 196230  2410 
23WYATT HONSE   02:46:50.2  2406 
24Tyler Gough   Middletown, CA02:48:13.8 204630  2404 
25LUKE RAMSETH   02:49:56.2  2429 
26James Ryan   San Jose, CA02:50:23.6 163902  2413 
27LARS HOLMGREN   02:50:44.2  2408 VANINI
28Justin Williams   Los Angeles02:50:50.2 197316  2415 MAJOR MOTION
29Terence Wedam   Klamath Falls, OR02:52:03.3 196434  2419 
30Peter Bain   Concord, CA02:53:21.1 203325  2405 TIENI DURO
31Frank Albanez   Alhambra, CA03:01:03.1 199480  2422 MAJOR MOTION
32MILES PAYTON   03:23:51.0  2436 

Men - Junior - JR - 17-18

 Place NameCity, StateTime USAC #BibTeam
1Shawn Rosenthal   Berkeley, CA02:19:49.2 196247  2303 TIENI DURO!!!
2Alexander Boyd   Wichita Falls, TX02:19:49.7 168212  2342 MAJOR MOTION CYCLING CLUB
3JACO VENTER   02:19:49.7  2328 
4Eric Riggs   Antelope, CA02:19:50.1 191302  2317 SF VELOSPORT/LOMBARDI SPORTS/THE CENTER
5Christopher Trembly   Beaumont, CA02:19:50.2 157683  2336 MAJOR MOTION
6Stevie Cullinan   Paradise Valley, AZ02:19:50.6 126775  2313 STRADA CYCLING CLUB
7Colter Cederlof   San Jose, CA02:19:50.7 188745  2315 
8Max Spirin   Citrus Heights, CA02:19:52.2 195652  2308 TIENI DURO
9Adam Switters   Citrus Heights, CA02:20:05.7 127093  2309 LOMBARDI SPORTS/ THE CENTER
10Chad Beyer   Tucson, AZ02:20:05.9 155190  2334 
11Clint Rogers   Sacramento, CA02:20:06.8 195220  2322 G S LOMBARDI
12Sean Van Horn   Mercer Island, WA02:20:07.2 194621  2340 
13Christoph Hurley   Greensburg, PA02:20:23.6 187587  2306 INTERMOUNTAIN ORTHOPEDICS CYCLING
14Alexi Martinez   Costa Mesa, CA02:20:25.2 190569  2329 EXCEL SPORTS
15Michael Margraf   Auburn, CA02:20:25.6 128847  2301 TEAM SWIFT
16Michael Sheppard   Oak Hills, CA02:20:25.7 200878  2332 MAJOR MOTION
17Mitchell Peterson   Salt Lake City, UT02:20:26.9 192669  2300 DEVO
18CHASE RENICK   02:20:29.4  2345 TEAM SWIFT
19Alexander Welch   Denver, CO02:20:30.1 186958  2312 
21Brian Janezic   Tucson, AZ02:20:31.0 179816  2320 REVOLUTION RACING
22James (Jimmy) Feely   Eagan, MN02:21:26.7 198125  2343 MINNESOTA JUNIOR CYCLING (MNJRC)
23Ulric DeYoung   Hereford, AZ02:21:27.5 180855  2302 
24ANTON NICOLA   02:21:37.9  767 
25Joe Lewis   Edina, MN02:24:57.7 184027  2341 MINNESOTA JUNIOR CYCLING
26Geoff Olin   Woodland Hills, CA02:27:48.2 201107  2331 AMGEN
27Jared Downing   Whittier, CA02:31:26.0 189077  2338 MAJOR MOTION
28JARRETT SEXTON   02:31:27.7  2339 
30Rajiv Eluthesen   Clayton, CA02:40:50.5 188946  2310 TIENI DURO
31Jason Awe   Scotts Valley, CA02:43:23.0 156276  2349 WHITE JERSEY SPORTS
32Nathan Sowle   Reno, NV02:43:28.2 198492  2304 RENO WHEELMEN
33Travis Stebbins   Blanchard, MI02:50:49.8 192376  2311 TEAM BIKESPORT
34Jonathan Cintz   Aptos, CA02:58:23.1 209337  2347 

Men - Master - MR - 50-59

 Place NameCity, StateTime USAC #BibTeam
1Arnie Baker   San Diego, CA02:18:45.0 48559  1630 CYCLO-VETS
2Wayne Stetina   Mission Viejo, CA02:19:39.2 34063  1636 US POSTAL SERVICE
3Thomas Doughty   Aurora, IL02:20:26.7 45274  1622 USPS MASTERS - TAILWINDS SPORTS
4William Tippets   La Jolla, CA02:21:37.8 125634  1640 
5Evan Kapel   Santa Cruz, CA02:23:17.6 158232  1645 SANTA CRUZ SPOKESMAN
6PAUL MCKENZIE   02:25:41.4  1647 CLIF BAR
7Ron LeBard   Grass Valley, CA02:26:33.0 125445  1628 WEBCOR
8John Zunino   Arnold, CA02:27:57.3 196757  1608 
9Jim Karanas   Lafayette, CA02:28:39.3 187558  1648 CLUB ONE PMAX RACING
10Jon Miller   Newbury Park, CA02:30:10.3 167489  1605 AMGEN CYCLING
11WADE BAKER   02:30:12.0  1644 
12Joseph (Pat) McNulty   Belmont, CA02:30:15.1 195376  1606 
13Jim Rhiner   Gardnerville, NV02:31:31.6 179383  1600 ALTA ALPINA CYCLING CLUB
14Scott Hennessy   Salinas, CA02:32:05.0 15827  1624 
15John Eidt   Little Rock, AR02:33:43.4 173514  1642 
16KEN HUNT   02:36:19.9  1611 
17Paul Smith   San Rafael, CA02:36:33.7 205531  1646 
18Jack Kelso   Pleasanton, CA02:38:04.3 202171  1634 
19Daniel Schmidt   Placerville, CA02:38:34.2 31627  1612 
20CLIFF RUNGE   02:40:44.9  1619 
21Michael Eakins   Carmel, CA02:42:29.3 203352  1617 EFPNSPORTS@SBCGLOBAL.NET
22Albert Barreto   Monterey, CA02:42:33.7 195743  1610 EARTHBOUND FARM ORGANIC RACE TEAM
23George Chester   Oxnard, CA02:42:59.7 196820  1618 
24Walter Chudleigh   Park City, UT02:44:07.4 176829  1641 
25Ernest Gallardo   Soledad Ca.02:44:22.0 12682  1652 MAKO-GALAXY
26David Thompson   Tres Pinos, CA02:44:44.2 200874  1631 SAN DIEGO CYCLO-VETS
27Edward Cronin   Manchester, VT02:47:06.8 187261  1602 
28CHARLES MOORE   02:48:47.7  1638 MCGUIRE CYCLING
29Jim Garwood   Santa Barbara, CA02:52:56.4 169688  1621 
30Donald Russell   Philipsburg, MT02:58:30.6 62984  1616 FIVE VALLEY VELO
31WEST CLARK   02:59:37.9  1629 
32James Wrona   Prunedale, CA03:01:32.2 204278  1650 
33GERHARD LOCKE   03:05:52.3  1609 
34JIM WHEARY   03:11:23.3  1632 
35TERRY ALEXANDER   03:14:42.6  1613 
36GARY CORNETTE   03:16:25.7  1615 

Men - Master - MR - 60-99

 Place NameCity, StateTime USAC #BibTeam
1Jim Fox   Aptos, CA02:28:04.0 196250  1706 MAKO-GALAXY GRANOLA
2Richard Shields   Fremont, CA02:28:04.5 140693  1711 MAKO GALAXY GRANOLA
3Michael Freeman   Martinez, CA02:28:04.6 12357  1708 CVC/HAMMER NUTRITION
4Harold (Butch) Richardson   San Diego, CA02:29:01.7 186694  1702 
5Robert Brooks   Auberry, CA02:31:26.5 46156  1715 
6James Wagner   Auburn, WA02:35:36.5 64329  1718 TI CYCLES
7Robert Dahlgren   Burbank, CA02:41:54.6 53224  1714 PAA
8William Coffin   Evergreen, CO02:41:58.6 48985  1721 
9David Powers   San Francisco, CA02:43:24.1 69032  1713 PENINSULA VELO
10Robert Llamas   Montrose, CA02:47:25.8 162224  1719 PAA MERRILL LYNCH
11David Mason   Menlo Park, CA02:48:09.8 207674  1729 WEBCOR/ALTO VELO
12GEORGE NYE   02:50:12.5  1712 
13ROGER MACOMBER   02:53:46.5  1701 
14Lothar Grahlmann   Pilot Hill, CA02:56:33.9 182045  1716 MAKO-GALAXY GRANOLA
15William Leek   Carmel, CA02:56:34.5 108491  1710 VELO CLUB OF MONTEREY
16Robert Faulhaber   Sunnyvale, CA02:59:41.4 197271  1700 
17BOB SCOTT   02:59:49.3  1728 
18Allen Price   Mountain View, CA03:03:18.8 143848  1724 
19Jim Turner   Menlo Park, CA03:03:42.8 63449  1723 WEBCOR/ALTO VELO
20STEVE JUNIPER   03:06:54.8  1725 
21HARRY PANTELAS   03:07:37.9  1704 
22MERRILL SCHWARTZ   03:08:47.7  1731 
23GERD ROSENBLATT   03:10:52.5  1703 
24John Roark   West Hills, CA03:11:19.8 151565  1707 
25Robert Hess   Manhattan Beach, CA03:15:45.0 16041  1717 
37ALAN DACHS   03:16:27.8  1633 

Men - Master 1 - MR - 30-39

 Place NameCity, StateTime USAC #BibTeam
1Christian Walker   Goleta, CA03:09:52.2 50894  234 LABOR POWER
2Jonathan Boyer   Marina, CA03:11:43.7 192433  212 
3Clint Gaver   San Jose, CA03:12:16.5 12965  205 TEAM SPINE
4Dirk Copeland   Santa Clara, CA03:15:31.3 52843  227 
5Michael Hutchinson   San Jose, CA03:15:33.3 156048  232 TEAM SPINE
6Brian Laird   Menlo Park, CA03:19:34.1 20154  237 TEAM SPINE
7PAUL CARTER   03:19:34.6  235 PEGASUS/ALLEGIANT AIR
8Andres Gil   Stockton, CA03:19:34.6 171882  226 DELTA VELO
9Gregory Bourque (1 - Pro)   San Diego, CA03:19:35.2 155729  238 TEAM SEASILVER
10BRETT HONDORP   03:19:37.1  239 
11Ronald Peterson   Redondo Beach, CA03:20:25.2 60719  216 
12Robert Newman   Los Gatos, CA03:21:40.0 53327  236 LABOR POWER
13Richard Thurman   Chico, CA03:23:47.5 35561  202 SOULCRAFT
14MIKE CUSHIONBURY   03:24:59.7  209 RODALE CYCLING MAGAZINES
15DAVID COURT   03:29:59.0  208 SIMPLY FIT
16Michael Hansen   San Marcos, CA03:30:44.3 14994  229 
17Michael Cooke   Turlock, CA03:33:04.9 167327  207 
18Scott Francis   Fresno, CA03:33:05.0 59584  217 
19Aaron Lubell   Santa Cruz, CA03:35:05.5 21726  224 EAST BAY VELO CLUB
20Joseph Dagostino   San Diego, CA03:36:48.6 50754  200 SPARKLETTS CYCLING TEAM
21TODD JOHNSON   03:38:27.5  228 JHMR/MARMOT
22Gino Tenace   Chanhassen, MN03:39:50.1 116243  203 
23MICHAEL LEE   03:57:45.7  219 TREK/ VW WESTCOAST
24VAUGHN VAN NOTE   03:58:20.0  241 

Men - Master 1 - MR - 40-49

 Place NameCity, StateTime USAC #BibTeam
1Ronald Reade   Berkeley, CA02:46:33.0 53377  551 
3David Worthington   Costa Mesa, CA02:46:46.5 55233  553 LABOR POWER
4Wayne Stetina   Mission Viejo, CA02:47:24.8 34063  512 US POSTAL SERVICE
5Lindsay Blount   Santa Barbara, CA02:47:27.7 3989  501 SIMPLY FIT
7Eric Saltzman   Menlo Park, CA02:47:28.8 46157  528 TEAM SPINE
8Paul Ecord   Portland, OR02:47:29.2 10444  545 TEAM CLIFFBAR
9MARTIN WILLOCK   02:47:29.2  559 
10Mark Fennell   Goleta, CA02:47:29.6 49691  538 SIMPLY FIT / ACTION SPORTS
11Andrew Holdsworth   San Francisco, CA02:47:31.7 145565  514 THIRSTYBEAR CYCLING
12Randal Warren   Chicago, IL02:47:49.2 37289  535 XXX RACING-ATHLETICO
13Mathew Hahn   San Diego, CA02:47:50.2 194473  526 
14Steven Swartzendruber   Santa Cruz, CA02:47:50.4 132641  511 FASTRACK/BDC
15Larry Hampson   Marina, CA02:48:21.2 49323  504 EARTHBOUND FARM ORGANIC
16Stanley Terusaki   Livermore, CA02:48:21.6 35241  546 MORGAN STANLEY/24HOUR FITNESS/SPECIALIZE
17Philip Woosley   Berkeley, CA02:48:21.7 141019  513 
18Chris Urban   Kentfield, CA02:48:21.8 171855  502 TEAM SPINE
19Den Satake   Mill Valley, CA02:48:23.3 56630  517 
20John Bernstein   Irvine, CA02:48:25.1 188613  532 REAL BICYCLES RACE TEAM
21Phillip Lovaglio   Hollister, CA02:48:41.2 90122  530 SJBC
22Paul Gossi   Reno, NV02:48:41.7 13762  515 TEAM EASTY/BICYCLE WAREHOUSE
23Richard Meeker   Corona Del Mar, CA02:48:42.1 23914  537 
24Stan Urban   San Rafael, CA02:48:55.1 178098  533 TEAM SPINE
25Kevin Susco   Palo Alto, CA02:49:42.6 186898  549 WEBCOR/ALTO VELO
27Robert Pasco   Belmont, CA02:49:57.9 136970  508 REAL BICYCLES
28Leslie Oglesby   Salinas, CA02:49:58.3 53661  505 EARTH BOUND ORGANIC FARMS
29Cass Laizure   Oakland, CA02:49:59.8 55004  554 TEAM CLIF BAR
30Jamie Willin   Redwood City, CA02:50:14.4 38466  541 OLYMPIC CLUB
31MIKE WRACHER   02:52:48.2  561 
32Christopher Hipp   Redwood City, CA02:52:49.1 16294  555 LABOR POWER
33Oswaldo Orozco   San Francisco, CA02:58:14.2 47530  536 SAN JOSE BIKE CLUB
34CHRIS MAHANNAH   03:02:52.6  552 GS RENO/BIKE WAREHOUSE
35Roger Bennett   San Carlos, CA03:03:04.2 197734  544 
37Mike Simpson   Shasta, CA03:06:34.0 81586  507 OWENS HEALTHCARE
38JERRY RIDGE   03:06:46.6  562 
39Allen Satterlee   San Jose03:06:56.8 58446  503 SAN JOSE BICYCLE CLUB
40William Dolphin   Ontario, CA03:07:48.0 50273  524 SOLANO AVE. CYCLERY
41Tom Minnich   Monterey, CA03:07:48.5 94338  506 EARTHBOUND FARM ORGANIC RACE TEAM
42John Riley   Cross Plains, WI03:08:31.8 29899  542 TREK
43Stephen Washburn   Port Hueneme, CA03:17:08.2 101657  543 UPS
44JIM GENTES   03:28:58.5  560 RED EDGE

Men - Master 2 - MR - 30-39

 Place NameCity, StateTime USAC #BibTeam
1Patrick Ruggles   Benicia , CA02:19:27.1 90165  1330 VELTEC SPORTS
2Jon Ardell   San Rafael, CA02:19:34.9 43606  1318 
4Bradley Galindo   Pasadena, CA02:19:36.2 157692  1294 PAA/MERRILL LYNCH
6Steven Hill   Berkeley, CA02:19:36.5 199411  1320 ALTO VELO
7Lawrence Niday   Goleta, CA02:19:42.7 86446  1311 SIMPLY FIT
8Matt Kramer   Los Gatos, CA02:19:44.8 183871  1297 ARMADILLO WILLIES
9Scott Palmer   Calabasas, CA02:19:53.3 195592  1285 AMGEN
10HUMBERTO FARIA   02:19:55.2  1210 TEAM YAKIMA
11Ken House   Eureka, CA02:20:03.6 155922  1206 
12JEROD KATRI   02:20:03.7  1224 REVOLUTION BIKES
13Brian Sevall   Soledad, CA02:20:14.7 201172  1234 
14Doug Urbach   West Lake Village, CA02:20:34.8 36238  1236 AMGEN CYCLING
15Paul Whiting   San Anselmo, CA02:20:35.0 206093  1267 TEAMCITY
16DAVID PORTER   02:20:36.3  1244 
17William Reuss   Redding, CA02:20:36.7 204939  1223 OWENS HEALTHCARE
18Kam Zardouzian   Solana Beach, CA02:20:53.3 188451  1301 RACEPLAN
19Robert Britt   Larkspur, CA02:20:53.8 116501  1291 CRC/TRAVELOCITY
20Marc Lundgren   San Clemente, CA02:20:54.3 21841  1220 
21AHMET GOKCEK   02:21:02.6  1273 
22Jerry Cherra   Duluth, MN02:21:08.6 149677  1292 ALTO VELO
23Scott Lillie   Billings, MT02:21:17.2 200491  1308 YELLOWSTONE CYCLING CLUB
24Angelo Calub   Folsom, CA02:21:32.7 169838  1329 BICYCLES PLUS/SIERRA NEVADA
25Andrew Zoldak   San Jose, CA02:21:44.7 43365  1332 
26Sean Berro   Santa Monica, CA02:21:52.8 98201  1237 AMGEN CYCLING
27TOM PHILLIPS   02:22:12.0  1219 REVOLUTION BIKES
28Michael Holt   Morgan Hill, CA02:22:16.6 75334  1266 WOLFPAK RACING
29Craig Pack   Altus, OK02:22:34.6 199078  1258 
30Greg Juneau   Milpitas, CA02:23:14.6 155436  1326 LGBRC
31Scott Virtue   Albuquerque, NM02:23:34.6 205395  1319 TEAM OCHSNER
32Geoffrey Gunderson   Oakland, CA02:23:50.2 195842  1208 CYCLESPORTS/ MOOSEHEAD
33Richart Harper   Davis, CA02:24:44.8 198885  1241 BOLLO RACING
34TONATIUH TREJO   02:26:46.7  1283 
35Derrick Gray   San Carlos, CA02:27:04.5 158158  1315 PENINSULA VELO CYCLING CLUB
36James Herzman   Truckee, CA02:27:17.7 207922  1279 RENO WHEELMAN/RENO HILTON
37Steven Bates   San Diego, CA02:27:35.8 90063  1250 TREK/VW
38Brian Smith   Walnut Creek, CA02:27:55.2 129534  1245 
39Sean Smith   Oakland, CA02:28:01.5 204018  1276 
40Thomas Carpenter   Oakland, CA02:28:10.2 169740  1211 
41John Friesen   Redding, CA02:28:11.2 204885  1218 OWENS HEALTHCARE
42Harry Ault   San Francisco, CA02:28:11.7 200906  1310 
43PHILLIP KEMPER   02:29:25.0  1321 
44Arik Florimonte   San Jose, CA02:29:25.1 204263  1298 SAN JOSE BICYCLE CLUB
45DAVID NADER   02:29:31.6  1246 
46Eduardo Bendana   San Francisco02:29:55.2 198517  1205 CALIFORNIA ROAD CLUB
47MARK TRUJILLO   02:30:05.9  1248 
48Cliff Verity   Huntington Beach, CA02:30:44.6 36614  1290 TEAM VELOSPORT
49Ian Duffy   Oakland, CA02:30:44.7 10121  1324 
50Chad Smith   Huntington Beach, CA02:30:47.5 195619  1284 COATES CYCLERY
51Gary Vasconi   Oakland, CA02:30:59.5 197278  1269 OAKLAND ROAD CLUB
52Tim Petersen   Alamo02:31:26.0 204058  1232 
53DENIS J STROUP   02:31:26.2  1272 
54JOHN STEINBERGER   02:31:34.5  1268 
55ERICH MALVRE   02:32:04.4  1289 CYCLE SPORTS MOOSEHEAD
56Nathan Cassell   Denver, CO02:32:08.2 196326  1256 
57WILL BEAUBIEN   02:32:10.2  1262 
58Todd Dodds   Redding, CA02:32:12.5 204936  1222 OWENS HEALHCARE
59FRANCIS CEBEDO   02:33:21.2  1302 ROADBIKEREVIEW.COM
60Murray Swanson   Woodside, CA02:33:56.0 206144  1323 PENINSULA VELO
61STEVEN MCARDLE   02:34:28.8  1304 
62Joseph Winslow   Menlo Park, CA02:34:39.3 195280  1217 
63Dennis Ramirez   Clovis, CA02:34:53.5 204890  1305 
64Thomas Sorbera   Lodi, CA02:35:03.5 203517  1251 DELTA VELO
65Luca Lodolo   Sunnyvale, CA02:35:05.8 207791  1309 WEBCOR ALTO VELO
66CHRISTOPHER COBLE   02:35:15.7  1264 
67STEVE JUDY   02:35:32.4  1263 
68Gildardo Obregon   Altadena, CA02:36:15.1 198427  1260 SC VELO
69OLIVER CARBONELL   02:37:15.8  1300 ROADBIKEREVIEW.COM
70Joseph Zambrano   Pasadena, CA02:37:50.8 39386  1226 SC VELO
71Mark Rozzano   San Francisco, CA02:37:51.0 207098  1255 
72Robert White   Morgan Hill, CA02:38:16.8 97873  1265 
73Stefan Riezler   Menlo Park, CA02:39:25.3 195739  1303 Webcor/Alto Velo
74CHARLIE COOPER   02:41:11.9  1231 WHITEPAW RACING 7B
75JOSE PADILLA   02:41:46.8  1282 
76TODD MCINTYRE   02:42:17.5  1209 DAVIS BIKE CLUB
77Michael Smith   Woodland Hills, CA02:42:32.3 182379  1212 
78BRETT HALL   02:43:02.4  1277 FASTRACK/BDC
79Chris Pearson   Santa Cruz, CA02:43:50.5 204867  1242 LGBRC
80Brad Ellis   Fredericksburg02:44:27.2 211443  1331 
81Joe Phillips   Piedmont, CA02:45:10.0 203959  1328 CLIF BAR
82Alex Wheeler   San Jose, CA02:48:12.9 115171  1214 SANTA CRUZ SPOKESMAN
83Paul Lennon   Redding, CA02:52:01.0 20897  1221 OWENS HEALTHCARE
84DAVID ENGELBRECHT   02:52:18.7  1271 
85JAMES DOZIER   02:54:57.6  1307 
86Alex Mercier   Davis, CA02:55:03.3 201987  1252 
87KEII JOHNSTON   02:55:40.2  1325 
88MICHAEL WARNER   02:56:08.1  1281 NORCAL VELO
89Robert Blue   Woodland Hills, CA02:56:20.0 110183  1261 AMGEN
90Joseph Puskarich   Irvine, CA02:58:55.2 144918  1200 TEAM VELOSPORT
91Michael Leon   Los Altos, CA02:59:48.0 205728  1286 TEAM SHEEPER
92Aaron Feldman   Berkeley, CA02:59:48.6 46384  1280 
93John Guca   Mokena, IL03:00:39.4 193285  1249 
94Michael Novitch   Los Angeles, CA03:00:54.6 54931  1293 VELOWORX RACING
95John Chavez   Carson City, NV03:00:56.5 205127  1240 
96STEVEN WESTBERG   03:03:27.3  1229 
97Kristopher Spyrka   Alamo, CA03:09:07.3 207144  1316 I3/WOT

Men - Master 2 - MR - 40-49

 Place NameCity, StateTime USAC #BibTeam
1Tony Reid   Sacramento, CA02:22:47.6 29458  1457 ALTA ALPINA CYCLING TEAM
2Greg Fenton   Ramona, CA02:22:48.2 11447  1452 BIKE EMPIRE AMCC
3Ron Takeda   Santa Barbara, CA02:22:49.6 34927  1413 FASTRACK/BDC
4David Christenberry   San Jose, CA02:22:51.4 180313  1465 WEBCOR/ALTO VELO
5TONY HERDRICH   02:22:52.1  1531 SPECIALIZED
6Karl Ehlert   Redwood City, CA02:22:53.6 10559  1449 
8Steve Boelter   Goleta, CA02:23:03.0 177625  1410 FASTRACK/BDC
9George Smith   Menlo Park, CA02:23:04.3 168005  1484 WEBCOR/ALTO VELO
10Barney Berglund   Santa Barbara, CA02:23:04.8 203811  1428 FASTRACK/BDC
11JAY STARR   02:23:11.2  1440 
12Kevin Willitts   S Lake Tahoe, CA02:23:23.7 192774  1420 
13Edward (Ted) Thomas   Mill Valley, CA02:23:23.8 196125  1439 
14Daniel Schalk   Oconomowoc, WI02:23:30.8 205347  1502 
15Sheldon Smith   Templeton, CA02:23:39.1 211210  1509 
16Thomas Feix   Moss Beach, CA02:23:40.7 11403  1504 PEN VELO/KONDRA
17Mark Luke   Goleta, CA02:23:55.1 131303  1419 
18Chris Marsh   Moorpark, CA02:24:02.2 22585  1426 AMGEN CYCLING
19James Williams   Murrieta, CA02:24:02.3 38352  1463 BACK ALLEY
20Chris Cerruti   Watsonville, CA02:24:02.5 198811  1461 CAL GIANT CYCLING
21Michael Vella   Saratoga, CA02:24:22.1 167402  1524 WEBCOR / ALTO VELO
22Bob Rosemeyer   Carlsbad, CA02:24:23.7 195211  1507 
23Chris Barre   San Diego, CA02:24:27.2 179279  1444 UNATTACHED
24KEITH HNATIUK   02:24:45.5  1532 SPECIALIZED
25Mark Johnson   Los Gatos, CA02:24:48.8 195404  1435 
26TOMMY PHAM   02:24:51.6  1530 SPECIALIZED
27Boris Rozenberg   Daly City, CA02:25:00.7 190311  1516 
28WILLIAM LONG   02:25:16.0  1482 
29Ken Doyle   Santa Barbara, CA02:25:23.3 9958  1408 FASTRACK/BDC
30John Luke   Simi Valley, CA02:25:41.7 21803  1430 AMGEN CYCLING
31Thomas Berger   Palo Alto, CA02:25:44.0 163390  1489 
32John Novitsky   Woodside, CA02:25:45.0 102274  1519 
33Kyle Samuels   Watsonville, CA02:25:48.7 148531  1468 
34Mark Azevedo   Twain Harte, CA02:27:43.2 57657  1415 DELTA VELO
35RON RICHARDSON   02:28:26.9  1432 
36Scott Calley   Monterey, CA02:28:48.6 195999  1441 
37Thomas Anhalt   Goleta, CA02:29:24.7 203502  1418 FASTRACK/BDC
38Randy Liechty   San Diego, CA02:29:43.0 89462  1521 EXCEL SPORTS
39Lee Carter   Santa Barbara, CA02:29:44.2 6335  1411 FASTRACK/BDC
40Chris Hanke   Morrisville, NC02:30:09.3 205647  1470 
41SCOTT DATTALO   02:30:19.5  1445 ALTO VELO
42Matthew Sundt   Monterey, CA02:31:09.7 184752  1431 VELO CLUB MONTEREY
43SCOTT KELLY   02:31:27.2  1523 
44Alex Fairly   Amarillo, TX02:32:07.1 128955  1511 HILLS SPORT SHOP
45Carl Beehler   Summerland, CA02:32:07.1 188054  1427 SOUTHERN CALIFORNIA CYCLING CLUB
46James Fox   New York, NY02:32:07.4 170425  1456 
47Alex Blease   San Jose, CA02:32:18.7 155963  1447 
48brian smith   Coronado, CA02:32:33.0 204521  1472 
49CHRIS SCHEETZ   02:32:56.7  1517 
50Randall Scott   Gold River, CA02:33:05.9 189624  1490 BP SIERRA NEVADA
51STANFEL LARRY   02:33:09.7  1534 
52JOHN DEBACKER   02:33:31.0  1528 
53R Patrick Goebel   Stanford, CA02:33:37.8 140848  1434 
54Alan Gould   Santa Barbara, CA02:33:38.2 201106  1400 FASTRACK/BDC
55KEVIN FETTERMAN   02:33:44.5  1424 
56James Hinchliffe   Danville, CA02:33:49.7 103651  1475 VILLAGE VELO
57Mark Holthouse   Camino, CA02:34:26.8 202976  1450 SACRAMENTO GOLDEN WHEELMEN/CITY BICYCLE
58Lance Newey   Fair Oaks, CA02:34:35.2 202161  1525 BICYCLES PLUS/SIERRA NEVADA/NORTH RIM
59Jeff Hane   Sunnyvale, CA02:35:05.2 14909  1526 SAN JOSE BICYCLE CLUB
60RANDY FLOYD   02:37:27.9  1405 
61ROBERT HYLLE   02:39:12.3  1514 VELO CLUB MONTEREY
62Chris Belec   Pleasant Hill, CA02:39:22.5 187401  1464 
63FRANK WALDEN   02:39:33.3  1533 TEAM WRONG WAY/FOX RACING SHOX
64Paul Borean   Hathaway Pines, CA02:40:37.2 178369  1469 
65LEONEL QUINTEROS   02:40:40.1  1446 SQUADRAOVEST
66Anthony Kahn   Arcata, CA02:41:18.2 143262  1481 REVOLUTION CYCLES
67Mark Peters   Phoenix, AZ02:41:27.0 206159  1493 
68Matt Conidaris   Gold River, CA02:41:28.7 195944  1455 BODY CONCEPTS -- PEAK CYCLING
69JAMES GREENLEE   02:41:53.0  1501 PENINSULA VELO
70JOHN WRIGHT   02:42:02.0  1460 TWO MOES RACING
71Franz Broz   Pebble Beach, CA02:42:07.1 155801  1442 EARTH BOUND FARMS
72H. MELTZER   02:43:29.8  1476 
73RUBEN VILLARREAL   02:43:34.5  1483 VELO PRO
75Brian Smith   Jackson, WY02:45:19.6 180687  1479 SNAKE RIVER BREWING
76Kevin Young   Vallejo, CA02:45:22.3 196228  1492 HYPERCAT RACING
77CHUCK THOMPSON   02:46:15.8  1500 
78Todd Ryska   San Antonio, TX02:49:41.3 198098  1503 
79Michael Heenan   Rancho Cucamonga, CA02:50:08.7 196107  1522 SC VELO
80Craig Stewart   Orinda, CA02:50:13.2 205201  1506 BERKELEY BICYCLE CLUB
81Stephen Harris   San Francisco, CA02:50:19.0 205958  1473 SQUADRA OVEST
82WILLIAM DUNHAM   02:51:31.5  1436 
83Richard Babbe   Frisco, TX02:53:58.2 72266  1406 MET-RX ALLIANCE CYCLING
84David Clay   Livermore, CA02:54:37.0 195208  1416 
85Jeffrey Davis   Coronado, CA02:54:56.2 205786  1451 
86Karl Schindler   Tucson, AZ02:55:34.9 100996  1498 
87RAFAEL CRUZ   02:55:55.0  1453 
88Jim Hunton   San Jose, CA02:56:07.9 204853  1467 
89Christopher Nordby   San Jose, CA02:57:11.3 204488  1496 
90FRANK OBRIEN   02:58:34.7  1485 
91John Goodman   Santa Barbara, CA02:59:17.9 203221  1407 FASTRACK/BDC
92BILL GRIFFITH   02:59:25.0  1425 
93JEFF GRIFFO   02:59:56.4  1499 
94Peter Van Slyke   Vallejo, CA03:01:03.1 207588  1510 
95Steven LeClair   Moraga, CA03:01:03.8 195281  1421 MAKO GALAXY GRANOLA RACE TEAM
96MARK ROSEN   03:05:52.3  1529 ROSEN REALTY RACING TEAM
97CHUCK CAWLEY   03:07:06.1  1459 
98Marvin Zauderer   San Rafael, CA03:12:15.0 175058  1429 MAKO/GALAXY GRANOLA
99TOM LECLERC   03:14:49.5  1478 FUZE CREATIVE
100CRAIG GITTELMAN   03:20:56.7  1437 

Men - U23 - 1-23

 Place NameCity, StateTime USAC #BibTeam
1Soloman Woras   03:11:15.2 201043  410 TEAM RUBICON
2John Hygelund   Los Gatos, CA03:11:15.4 132315  421 SIERRA NEVADA CYCLING
3Matthew Gilbert   Laguna Beach, CA03:11:15.7 208804  424 TEAM MONEX
4KYLE GRITTERS   03:12:24.7  426 TEAM MONEX
5David Washburn   Sacramento, CA03:19:36.4 178982  420 SIERRA NEVADA CYCLING
6Emmanuel Suarez   Glendale, CA03:19:37.7 181284  415 
7Mike Hoffman   Berkeley, CA03:22:11.5 191571  422 RITCHEY
8JOSE ESTEVEZ   03:22:55.2  413 MAJOR MOTION
9Mikkel Bossen   Portland, OR03:27:14.8 183668  400 
10Owen Gue   Missoula, MT03:32:30.5 164271  404 TEAM HAMMER GEL
11Dain Zaffke   San Anselmo, CA03:33:29.8 172117  411 EASTSIDE CYCLES/MARIN
12Evan Anderson   Grass Valley, CA03:34:50.0 140620  418 

Men - Cat 2

 Place NameCity, StateTime USAC #BibTeam
1Kyle Barbary   Berkeley, CA03:12:46.2 167835  40 
2Bruce Muhlfeld   Calabasas, CA03:13:15.2 68445  14 TREK/VW JAX
4DAVE REID   03:14:03.7  50 
5Ryan Ramos   Berkeley, CA03:14:04.0 139348  33 
6Richard Pego   Los Angeles, CA03:14:04.5 41144  LGBRC
7Gen Kogure   Asheville, NC03:14:04.7 52491  13 
8Paul Reichardt   Castro Valley, CA03:14:07.5 178307  46 
9Jon Erskine   Soquel, CA03:14:29.6 10942  38 LOS GATOS BIKE RACE CLUB
10SHAWN OLIVER   03:14:49.2  49 
11Brian Bosch   Fresno, CA03:14:50.7 40703  26 
12Daniel Vinson   Lake Elsinore, CA03:14:50.8 193022  19 SC VELO
13Dan Distefano   Tucson, AZ03:14:51.7 89997  
14Evan Lawrence   Ham Lake , MN03:15:00.8 172535  27 TEAM HAMMER GEL
15Tim Brackett   Roseville, CA03:15:29.1 180122  11 TEAM SPINE
16Michael Tymoff   San Francisco, CA03:15:36.8 207589  23 
17John Benson   Flagstaff, AZ03:15:42.1 98924  35 FLAG VELO
18Wayne Puckett   San Francisco, CA03:16:02.7 89367  18 TEAM SPINE
19Joseph Karbowski   Sunnyvale, CA03:16:28.3 90847  24 DAVIS BIKE CLUB
20Michael Buckley   Reno, NV03:16:39.7 186698  ROCKNASIUM/CBE
21Ari DeWilde   Baltimore, MD03:17:30.7 91790  39 
22Jeffrey Dickey   Arlington, VA03:17:30.8 9439  41 RENO WHEELMEN
23John Hanson   Saunderstown, RI03:22:44.7 172966  22 ESSEX COUNTY VELO
24Brian Heneghan   San Jose, CA03:23:20.0 63508  LOS GATOS BICYCLE RACING TEAM
25Mark Shimahara   Ventura, CA03:23:57.9 32481  BIKEZEN.COM
26John Fowlkes   Mountain View, CA03:26:20.5 69571  37 
27Steven Mannebach   Salt Lake City, UT03:30:53.7 117525  UNATTACHED
28William Longstreth   Tiburon, CA03:34:47.0 110206  47 OLYMPIC CLUB
29KALEN GRUBER   03:43:41.0  48 
30Jonathan Sinclair   Hollister, CA03:47:28.3 113194  29 LOS GATOS BICYCLE RACING CLUB
31Matthew Novakovich   Anchorage, AK03:47:28.3 209589  34 HAMMER GEL
32Graham Simpson   Carmel Valley, CA03:48:03.7 65800  43 CLUB ONE/P. MAX

Men - Cat 3

 Place NameCity, StateTime USAC #BibTeam
1Jonathan Eropkin   Fresno, CA02:44:40.2 197844  729 CENTRAL VALLEY CYCLING
2John Staroba   Santa Rosa, CA02:44:43.7 195591  748 EASTSIDE CYCLES / MARIN
3Michael Telega   Los Angeles, CA02:45:07.0 162569  750 VILLAGE PEDDLER/BUY-CELL.COM
5Jason Williams   Chico, CA02:45:08.1 190700  704 TEAM SPINE
6Scott Frake   Cupertino, CA02:45:08.2 187388  715 SAN JOSE BICYCLE CLUB
7Dominic Giampaolo   Lewiston, ME02:45:08.3 196229  778 
8AARON ODELL   02:45:08.6  773 VILLAGE PEDDLER / BUY-CELL.COM
9JOSHUA SNEAD   02:45:16.3  775 VILLAGE PEDDLER
10Brian Rutherford   Oakland, CA02:45:16.3 140758  735 RHVILLLA.COM
11MARTIN WILLOCK   02:45:43.4  771 
12John Knotts   Bend, OR02:45:45.5 65194  764 LOS GATOS BICYCLE RACING CLUB
13Patrick Rocchi   Marina, CA02:46:02.5 145588  742 NORCAL VELO
14Gary Gellin   Menlo Park, CA02:46:02.7 13028  757 WEBCOR/ALTO VELO
15PETER SCHILLING   02:46:03.4  746 
16Mike Sharkey   Steamboat Springs, CO02:46:16.2 151548  758 WORLD CUP SKI AND CYCLE
17Skye Kraft   San Francisco, CA02:46:17.9 98645  751 EASTSIDE CYCLES / MARIN
19Jason Montano   Oakland, CA02:46:18.2 180565  727 
20Jason Clymer   Novato, CA02:46:20.6 95542  721 SOULCRAFT
21Brian Mulroe   Mountain View, CA02:46:31.7 195684  700 LEMATIN
22Patrick Watson   Los Angeles, CA02:46:32.1 158915  744 VELOWORX RACING
23Jeffry Smith   Draper, UT02:46:32.1 157726  713 STARBUCKS DOUBLESHOT
24Joshua Gilbert   Visalia, CA02:46:32.3 198813  745 
25Ty Kady   Placentia, CA02:46:38.0 191004  731 JAX BICYCLE CENTER/WENZEL COACHING
26Santiago Bolon   San Jose, CA02:46:59.7 195384  736 
27Matt Morenzoni   Sunnyvale, CA02:47:19.2 124882  708 DAVIS BIKE CLUB
28Chris Swain   Emeryville, CA02:47:24.3 196751  725 
29Brian Usher   Queensbury Ny02:47:26.4 133522  737 RACERS OF ADIRONDACK REGION
30MATTHEW THEISEN   02:47:29.2  772 RH VILLA.COM
31Matthew Karre   Portland, OR02:47:37.0 182287  718 TEAM ACTIVE
32Erik Bergstrom   Bend, OR02:47:40.1 207789  776 SANTA CRUZ SPOKESMEN
33Mark Gagner   San Jose, CA02:48:11.8 169733  702 
34Gerard Prosnier   Scottsdale, AZ02:48:17.4 142188  724 PROCON CYCLING
35ANTHONY LEAL   02:49:35.2  770 SOULCRAFT.COM
36John Lorenz   San Francisco, CA02:50:44.6 155043  755 
37Erick Le   South San Francisco, CA02:51:41.8 140575  701 LE MATIN
38Antonio Tunzi   San Francisco, CA02:53:15.9 196225  717 THIRSTYBEAR CYCLING
39Robert Evans   Scotts Valley, CA02:54:09.0 72893  759 VILLAGE PEDDLER PRESENTED BY BUY-CELL.CO
40PETER WOOD   02:55:54.2  722 THIRSTY BEAR RACING
42Greg Bloom   Hollister, CA02:57:04.7 3982  752 
43ROBERT KEATING   02:59:40.8  734 
44James Connell   Oakland, CA03:00:04.3 172578  707 
45Dain Zaffke   San Anselmo, CA03:00:47.7 172117  749 EASTSIDE CYCLES/MARIN
46MICHAEL ROCHLIN   03:06:59.8  754 EASTSIDE CYCLES/MARIN
47Kevin Knox   Altadena, CA03:11:06.2 171528  720 AMGEN CYCLING
48Christian Kearney   Oakland, CA03:13:56.9 197820  726 VILLAGE PEDDLER
49Gino Tenace   Chanhassen, MN03:24:29.7 116243  712 

Men - Cat 4

 Place NameCity, StateTime USAC #BibTeam
1Jesse Thomas   Mountain View, CA02:46:14.7 206462  975 
2Luca Ortolani   San Francisco, CA02:46:40.0 207747  941 ALTO VELO
3Rupert Brauch   San Jose, CA02:46:43.0 195435  933 WEBCOR/ALTOVELO
4Jesse Bastide   Falmouth, ME02:47:29.1 73946  953 
5Laurent Recollon   San Anselmo, CA02:47:30.7 105185  982 CALIFORNIA ROAD CLUB
6Tomas Roba   Broomfield, CO02:47:39.4 206552  974 MET-RX ALLIANCE
7Spencer Ericksen   Sparks, NV02:47:40.2 198291  920 RENO WHEELMEN
8Chris Kitchen   Venice, CA02:47:41.6 204740  971 DAVIS BIKE CLUB
9Richard Carson   Fairfax, CA02:47:42.1 168597  973 VILLAGE PEDDLER
10Dan Tedford   Mountain View, CA02:47:42.1 196695  907 
11Phil Slama   Seattle, WA02:47:44.8 204099  924 ARETE RACING
12Christopher Jones   Redondo Beach, CA02:48:09.6 205317  978 BIG ORANGE RACING
13Ronnie Kier   Fresno, CA02:48:35.3 168115  965 CENTRAL VALLEY CYCLING
14Reno Garcia   Palo Alto, CA02:48:57.4 201502  981 TEAM SWIFT
15James Rusk   Berkeley, CA02:49:12.1 197430  913 BERKELEY BIKE CLUB
16Justin Piccorelli   Berea, OH02:49:13.0 198292  966 VELOWORX RACING
17Mark Herynk   Redwood City, CA02:49:24.5 157123  947 
18Sean Campbell   Oakland, CA02:51:27.0 198622  910 
19Timothy Jones   Ontario, CA02:51:35.6 169996  979 AFP / VELO SPORT
21Sterling Forrester   Clearwater, FL02:52:41.3 198703  968 REDDING VELO
22Karl Nielsen   Isla Vista, CA02:55:08.2 146391  935 UCSB CYCLING
23Clark Scheffy   Cambridge, MA02:55:30.8 197002  901 CYCLESPORTS OAKLAND
24McKinley Thompson   San Anselmo, CA02:56:05.2 80642  969 
25Damion Hickman   San Juan, CA02:57:24.1 16094  980 TEAM VELOSPORT
26Benjamin Sullivan   Missoula, MT02:58:16.0 178006  938 MONTANA VELO
27Christopher Judy   Salt Lake City, UT02:59:23.5 130995  925 JADECYCLES.COM
28Ronald Lauber   Philadelphia, PA03:01:34.3 63986  954 LOS GATOS CYCLING TEAM
29Jeremiah Peiffer   03:01:41.7 185949  929 
30Mack Chew   San Francisco, CA03:01:41.8 170147  908 
31Chin Chao   San Anselmo, CA03:02:10.3 119886  945 
32Edward Leon   San Anselmo, CA03:04:51.7 207154  960 
33John Hancock   Sacramento, CA03:05:30.8 195844  944 
34Robert MacNeill   San Carlos, CA03:05:34.1 199599  946 WEBCOR/ALTO VELO
35Sean Motta   Redwood City, CA03:05:42.2 201785  950 
36Jason Brayley   Auburn, WA03:07:15.5 121460  939 CELO PACIFIC
37Damian Stein   San Rafael, CA03:07:56.3 33962  917 
38JASON ALLEN   03:10:05.2  952 UNATTACHED
39Chad MacDonald   Pleasant Hill, CA03:11:48.2 170454  922 SAN DIEGO STATE UNIVERSITY/RANCHOS
40Ryan MacDonald   Martinez, CA03:11:48.2 160274  931 SAN DIEGO STATE UNIVERSITY/ RANCHOS CYCL
41Holden Hardcastle   San Francisco, CA03:15:15.3 204650  904 
42Aaron Vlasak   Philadelphia, PA03:15:22.2 156482  936 
43James Keiser   San Diego, CA03:18:57.3 195294  943 
44Kevin Moore   Mountain View, CA03:18:57.7 200279  903 WEBCOR/ALTO VELO
45Rob Love   Watsonville, CA03:19:36.6 197339  923 
46Christopher Barker   Rancho Cordova, CA03:19:37.0 196545  911 
47Travis Hockersmith   Danville , CA03:20:12.2 204475  921 
48Barrett Ausman   San Jose, CA03:21:33.6 186327  928 
49Michael Buell   San Francisco, CA03:22:33.1 198510  964 CRC/ TRAVELOCITY - HILL-CO
50Jeffrey Wu   San Francisco, CA03:22:37.6 167914  918 DAVIS BIKE CLUB

Men - Cat 5

 Place NameCity, StateTime USAC #BibTeam
1RUSSELL TALBOT   02:23:20.2  1856 
2Donald Fornes   San Francisco, CA02:23:21.0 200281  1820 
3MICAH MOZAL   02:23:53.2  1827 
4Mark Faulkner   Pacific Grove, CA02:23:53.5 190171  1808 
5Wyatt Weisel   Menlo Park, CA02:23:59.1 208676  1883 
6Coleman Ruiz   Pacific Grove, CA02:23:59.3 201711  1837 
7Shane Franco   Fairfax, CA02:23:59.3 144254  1892 TEAM TAM
8Daniel Chudleigh   Park City, UT02:24:00.5 175196  1855 
9Krage Olrich   San Rafael, CA02:24:15.3 26691  1893 NORCAL VELO
10Nathan Collins   Albany, CA02:24:15.5 204792  1870 
11John Madden   Mountain View, CA02:24:15.7 210146  1881 
12Aaron Paterson   Sunnyvale, CA02:24:16.2 209976  1877 UCSB
13Douglas McKenzie   Santa Rosa, CA02:24:16.8 201588  1853 REDWOOD EMPIRE VELO
14Scott Bowen   Santa Rosa, CA02:24:17.2 168442  1842 
15Lee Bird   La Canada, CA02:24:33.1 195795  1841 PAA/MERRILL LYNCH
16Jon Grant   Pleasant Hill, CA02:24:33.5 205662  1865 FORWARD MOTION SPORTS
17Jared Ives   Santa Rosa, CA02:24:34.7 207956  1868 REDWOOD EMPIRE VELO
18Raymond Cogan   San Francisco, CA02:24:35.2 201255  1815 SQUADRA OVEST
19Gregory Degouveia   Chico, CA02:24:37.0 209685  1891 
20JASON FITZGIBBON   02:24:45.6  1835 
21WILLIAM WARNER   02:24:47.2  1854 
22BERNIE MURPHY   02:24:56.1  1887 
23Ben Shank   Capitola, CA02:25:04.5 209168  1843 FAMILY CYCLING CENTER
24Cullen Wojcik   Knoxville, TN02:25:41.7 205491  1847 SQUADRA OVEST
25Scott Varner   Oakland, CA02:25:53.1 200034  1821 BERKELEY BIKE CLUB
26DAVID ALVAREZ   02:26:36.7  1886 BROADMARK
27EDWARD WILBUR   02:26:37.3  1838 
28Kevin Herlihy   Goleta, CA02:27:31.7 205487  1833 
29COREY HENDERSON   02:27:50.2  1844 
30ERIC DAVIS   02:29:15.3  1899 
31RICHARD NIELSEN   02:29:56.2  1830 
32Chris Dittmore   Danville, CA02:30:07.8 189620  1816 TEAM PRECEPT
33SEAN LUNNY   02:30:54.0  1851 
34Robert Baesman   San Carlos, CA02:31:08.9 204646  1839 
35ERIC STEINBACH   02:31:30.6  1896 SAN DIEGO BIKER.COM
36JAMES LIPE   02:31:49.1  1901 BOYER SPORTS
37Toby Schmidt   Salt Lake City, UT02:33:54.4 195148  1858 
38Scott Daniel   Visalia, CA02:34:21.2 207139  1882 
39John Hubbard   Tucson, AZ02:34:25.5 155536  1879 TUCSON BICYCLES
40Brett Stevens   Cottonwood Heights, UT02:34:27.1 205633  1813 PORCUPINE PUB / CONTENDER BICYCLES
41MATT SWINNERTON   02:35:04.6  1825 TEAM PRECEPT
43KENNETH MOZEK   02:37:19.6  1819 TEAM PRECEPT
44TOM SHEPPARD   02:37:26.7  1861 
45Ernie Perreira   Sebastopol, CA02:37:53.7 27775  1806 REDWOOD EMPIRE VELO
46JEFF TOTTEN   02:38:35.8  1885 
47Dana Farmer   Gold River, CA02:40:08.6 150815  1800 SAN JOSE BIKE CLUB
48JOHN HANSEN   02:40:12.2  1900 
49Gregory Bennett   San Francisco, CA02:40:14.0 205105  1871 BERKELEY BICYCLE CLUB
50ISAAC FACUNDO   02:40:50.5  1840 CITRUS VALLEY VELO
51Patrick Hamilton   Reno, NV02:40:59.1 121323  1869 
52John Marshall   Reno, NV02:42:10.9 207775  1836 
53Jeff Bermant   Santa Barbara, CA02:42:40.7 200932  1876 BDC FASTRACK
54JOHN HANSEN   02:42:57.8  1818 TEAM PRECEPT
55Zachary Dylong   Woodland, CA02:43:04.1 207991  1845 B&L BIKE SHOP
56Joshua Parman   Los Altos, CA02:43:56.7 204839  1895 
57Erim Taser   Lodi, CA02:44:30.2 205116  1850 
58JOHN BRANIN   02:44:46.2  1905 
59WILLIAM GEURTS   02:45:57.2  1907 
60DON TERRES   02:46:33.4  1873 
61Scott Kemball-Cook   Centennial, CO02:47:54.1 195814  1824 LAKEWOOD RACING TEAM
62DANIEL WORRELL   02:48:11.1  1863 SPIN CITY BIKES
63Carl Flanagan   Tampa, FL02:48:28.5 178019  1860 SOCALCYCLING.COM
64JOEY FIGONE   02:48:41.1  1903 
65JOHN SWANSTROM   02:49:02.8  1878 
66AMEN TURCIOS   02:49:36.8  1807 
67Plaridel Atil   Santa Rosa, CA02:49:41.8 203828  1864 CITRUS VALLEY VELO
68Jun Aishima   Menlo Park, CA02:51:27.2 206581  1897 LGBRC
69KEVIN BACUYANI   02:54:59.1  1805 PACIFIC PHYSICAL THERAPY
70Brian Carlson   Visalia, CA02:57:03.5 93057  1894 
71STEVE MILLION   02:57:40.1  1866 AWM
72BRUCE KAISER   02:57:58.6  1880 SGW/CITY BIKE WORKS
73MICHAEL FARGHER   02:59:31.0  1890 
74Darren Chamberlain   Salinas, CA03:00:11.7 204682  1812 
75PAUL YLLANA   03:00:57.4  1829 
76WALTER FORD   03:02:05.7  1888 SACRAMENTO BARIATRIC
77BUTCH FRANCISCO   03:03:36.1  1906 
78Ralph Hipps   San Jose, CA03:07:15.0 193087  1809 ALTO VELO

Women - Junior - JR - 15-16

 Place NameCity, StateTime USAC #BibTeam
1TAYLOR BOGLIOLI   01:41:42.6  2451 GREGGS/TREK
2DAWN TISDELL   01:42:37.3  2457 
3Kimberly LaFleur   Discovery Bay, CA01:43:45.6 195496  2455 TEAM SWIFT
4Kelly LaFleur   Discovery Bay, CA01:43:45.7 196265  2456 TEAM SWIFT
5Amara Boursaw   Newcastle , WA01:46:22.0 170202  2452 GREGGS TREK VW
6Michelle LaFleur   Discovery Bay, CA01:54:21.1 204663  2454 TEAM SWIFT
7Elissa Stolman   Mill Valley, CA01:55:42.4 197365  2453 BAY AREA VELO GIRLS
8Danielle Griffo   Homewood, CA01:58:10.3 182948  2450 

Women - Junior - JR - 17-18

 Place NameCity, StateTime USAC #BibTeam
1Lia Winfield   Davis, CA01:41:49.1 200380  2350 TEAM SWIFT
2Brett Dollar   Middlebury, VT01:42:28.1 206975  2351 
3Caitlin Gibbs   Steamboat Springs, CO01:44:37.8 127100  2353 TEAM RIO GRANDE

Women - Master - MR - 30-39

 Place NameCity, StateTime USAC #BibTeam
2Betina Hold   El Dorado Hills, CA02:36:14.8 179385  2014 
3Lisa Norris   Sunnyvale, CA02:36:27.8 186015  2010 WEBCOR BUILDERS
5TAMARA HOUSE   02:38:41.7  2018 HI TECH
6CLAUDIA KAMMERER   02:38:42.2  2000 
7LUCIANA VECCHI   02:45:18.8  2020 SPECIALIZED
8Kori Kunz   Eugene, OR02:45:44.2 83379  2015 FRED MEYER
9LAUREN SMITH   02:47:47.4  2019 SPECIALIZED
10Jennifer Wilson   Van Nuys, CA02:52:28.5 210833  2012 
11GEORGENE PANTELAS   02:58:10.7  2005 
12JENNIFER WHALL   02:58:39.7  2011 
DNPBRIDGET FELLOWS   03:14:55  2004 

Women - Master - MR - 40-99

 Place NameCity, StateTime USAC #BibTeam
1LAURA CHARAMEDA   02:36:04.5  2130 DEWARS
3Tracy Lillig   San Ramon, CA02:36:29.0 181215  2113 VELO BELLA
4Elizabeth Benishin   Palo Alto, CA02:36:36.5 75937  2111 SAN DIEGO CYCLOVETS
5Kimberley Boester   Cupertino, CA02:37:13.2 50449  2128 WEBCOR BUILDERS
6Susan Thompson   Los Angeles, CA02:37:15.6 187715  2110 ZOMBIES
8Laura Perdew   Irvine, CA02:39:40.1 73658  2101 BELLA NOVA
9Jill Gass   Santa Barbara, CA02:39:40.1 12917  2103 
10Lea Brooks   San Luis Obispo, CA02:39:42.1 51564  2124 MAKO GALAXY GRANOLA
11Alexandra Tabata   Riverside, CA02:42:17.6 171362  2126 BELLA NOVA
12Denise Clark   Santa Barbara, CA02:43:40.0 108334  2109 
13Andrea Mackie   Walnut Creek, CA02:45:45.7 22042  2116 VELO BELLA MOOTS CYCLES
14Georgene Vairo   Santa Barbara, CA02:49:27.7 197382  2131 BELLA NOVA RACING TEAM
15Lisa Tonello   Los Alamos, CA02:52:01.2 88536  2123 
16Angela Bell   Santa Barbara, CA02:52:18.5 172401  2105 BELLA NOVA
17Julie Trimble   Boise, ID02:53:36.1 169797  2129 MAGURA/TREASURE VALLEY CYCLING TEAM
18WENDY WARD   02:54:45.0  2100 
19Phyllis Olrich   Grass Valley, CA02:57:54.0 125288  2107 WEBCOR/ALTO VELO
20Corrie Roberts   West Rockport, ME02:59:45.2 193454  2106 BIKEMAN.COM
21Nancy Seidler   Irvine, CA02:59:45.2 115569  2127 BELLA NOVA RACING TEAM
22MIRIAM GARFINKEL   03:13:55  2112 
23DENISE RAMIREZ   03:13:55  2115 VELLO BELLA

Women - U23 - 1-23

 Place NameCity, StateTime USAC #BibTeam
1LANA ERIKSSON   02:12:12.8  452 
2SERENA SHERIDAN   02:12:13.1  450 

Women - Cat 3/4

 Place NameCity, StateTime USAC #BibTeam
1Ryan Layhee   Sonora, CA02:29:19.2 190508  2275 
2Jenn Halladay   Kuna, ID02:29:25.8 192738  2234 
3Phoebe Dameron   Bishop, CA02:29:38.8 190596  2273 3BRT/RITCHEY ORGANIC ATHLETE
4Linda Gallo   Mountain View, CA02:29:39.0 206925  2255 MONTA VISTA VELO
5Lisa Romanoski   Albany, CA02:29:42.0 208759  2233 
6AMORY ROWE   02:30:17.2  2282 
7Erin Alders   Nevada City, CA02:30:17.7 196090  2250 VELO BELLA
9Holly Harris   Menlo Park, CA02:30:45.5 15191  2267 
10Jennifer Joynt   Berkeley, CA02:31:17.5 197431  2209 CYCLE COURIERS OF SF
11Michelle LaPierre   Ventura, CA02:31:46.1 200124  2221 ECHELON SANTA BARBARA
12Brooke Miller   Sebastopol, CA02:32:31.7 196453  2288 UCSC
13Carrie Edwards   Sausalito, CA02:33:23.0 99021  2213 SQUADRA OVEST
14Sarah Lightfoot   Oakland, CA02:34:31.8 188948  2218 MCGUIRE REAL ESTATE
15NATALIE MIK   02:35:34.2  2284 DAVIS BIKE CLUB
17Jane Ziegler   Tulsa, OK02:36:23.8 197200  2241 
18Nancy Farzan   San Francisco, CA02:37:44.7 203697  2256 SQUADRA OVEST
19PAULA BURKS   02:37:49.0  2210 
20Monica Neilson   Brentwood, CA02:38:00.5 191346  2220 VELO BELLA
21Sally Johnson   San Rafael, CA02:38:06.9 204723  2231 
22Rita Szeto   Crockett, CA02:38:12.5 195322  2265 SOLANO AVENUE CYCLERY
23Laura Sanchez   Salinas, CA02:38:20.0 169832  2261 VELOBELLA
24tricia gellman   Sausalito, CA02:38:21.4 204299  2204 
25Jennifer Chapman   Bend, OR02:38:23.4 198814  2217 VELO BELLA
26Tracey Ford   San Jose, CA02:38:31.9 204138  2270 BAY AREA VELO GIRLS
27Kim Weins   Boulder, CO02:38:49.2 203613  2259 BAY AREA VELO GIRLS
28Suzanne Schlosberg   Santa Monica, CA02:38:52.3 157741  2245 LA GRANGE
29Brianne Burgess   Saratoga, CA02:38:57.6 204772  2223 DAVIS BIKE CLUB
31Holly Azevedo   Twain Harte, CA02:41:16.1 187371  2230 DELTA VELO
32Bridget Ragan   Davis, CA02:44:20.2 204670  2271 
33Elizabeth Tenuto   El Dorado Hills, CA02:46:51.8 195386  2214 
34WHITNEY HENDERSON   02:47:04.8  2232 
35SANDY LIAW   02:47:49.7  2287 ARETE RACING
36Elizabeth Varner   Oakland, CA02:48:46.6 197942  2276 
37COURTENAY BROWN   02:51:24.6  2216 
38DENISE KIRCHER   02:51:25.7  2219 
39MANDY MCCOY   02:51:25.8  2205 
40CRYSTAL PREDEEK   02:51:26.5  2253 FUSION SPORT
41Angela Merson   Lafayette, CA02:52:32.6 187484  2215 LEFT COAST RACING TEAM
42PATTY SELBICKY   02:52:48.2  2240 VELO CLUB MONTEREY
43HEIDI HAUSSERMANN   02:52:48.2  2226 VELO CLUB MONTEREY
44NANCY HARDIN   02:52:48.2  2248 
45MIREYA DE LA VEGA   02:52:48.3  2281 TEAM BAY BABES
46Laurie Simonson   Burlingame, CA02:52:56.9 138341  2201 
47Julie Baird   Burlingame, CA02:52:59.3 187930  2208 
48Karen Tomlinson   San Francisco, CA02:53:06.9 195535  2202 
49VALERIE POULIN   02:54:15.7  2227 MOOTS
50LAURA CUDA   03:09:55  2206 
51LESLIE DAIGLE   03:26:13  2249 CYCLES VELOCE

Report missing or incorrect license numbers

Volkswagen
ShimanoSpyBonk BreakerCUOREUSACDFSierra Nevada
UCI USA Cycling is the official governing body for all disciplines of competitive cycling in the United States. The 501c3, membership-based organization aims both to achieve sustained success in international cycling competition and to grow competitive cycling in America while delivering an exceptional customer experience.
View Children's Online Privacy Protection Policy
US Olympic Committee